Time;durP1;ratioP1;P1;durP2;ratioP2;P2;SDS_P1;SDS_P2;PMS_P1;PMS_P2;Temp;Humidity;BMP_temperature;BMP_pressure;BME280_temperature;BME280_humidity;BME280_pressure;Samples;Min_cycle;Max_cycle;Signal;HPM_P1;HPM_P2
2021/10/18 00:00:10;;;;;;;8.90;4.97;;;;;;;;;;5144683;27;20469;-84
2021/10/18 00:02:38;;;;;;;7.47;5.90;;;;;;;;;;5144457;27;20481;-85
2021/10/18 00:05:08;;;;;;;11.40;5.13;;;;;;;;;;5144523;27;20529;-84
2021/10/18 00:07:35;;;;;;;11.90;5.43;;;;;;;;;;5144493;27;20465;-84
2021/10/18 00:10:03;;;;;;;10.27;5.67;;;;;;;;;;5143753;27;20904;-85
2021/10/18 00:12:31;;;;;;;7.50;4.70;;;;;;;;;;5143134;27;20537;-83
2021/10/18 00:15:00;;;;;;;11.87;5.20;;;;;;;;;;5143024;27;20453;-83
2021/10/18 00:17:28;;;;;;;8.03;5.67;;;;;;;;;;5143178;27;20465;-82
2021/10/18 00:19:56;;;;;;;10.03;4.60;;;;;;;;;;5142626;27;20707;-82
2021/10/18 00:22:23;;;;;;;12.40;5.60;;;;;;;;;;5142689;27;20560;-83
2021/10/18 00:24:51;;;;;;;11.27;5.67;;;;;;;;;;5142892;27;20580;-83
2021/10/18 00:27:19;;;;;;;9.03;5.90;;;;;;;;;;5144103;27;20485;-82
2021/10/18 00:29:46;;;;;;;9.93;5.53;;;;;;;;;;5142618;27;20683;-82
2021/10/18 00:32:15;;;;;;;17.67;5.80;;;;;;;;;;5144325;27;20516;-84
2021/10/18 00:34:43;;;;;;;12.93;5.63;;;;;;;;;;5143072;27;20442;-84
2021/10/18 00:37:11;;;;;;;10.33;5.63;;;;;;;;;;5143886;27;20544;-83
2021/10/18 00:39:40;;;;;;;8.07;5.10;;;;;;;;;;5142236;27;20446;-84
2021/10/18 00:42:08;;;;;;;11.73;6.03;;;;;;;;;;5142712;27;20881;-83
2021/10/18 00:44:36;;;;;;;8.03;5.33;;;;;;;;;;5142805;27;20544;-83
2021/10/18 00:47:05;;;;;;;10.70;6.90;;;;;;;;;;5143164;27;20505;-83
2021/10/18 00:49:34;;;;;;;11.57;5.90;;;;;;;;;;5141859;27;20525;-81
2021/10/18 00:52:02;;;;;;;8.53;4.90;;;;;;;;;;5142812;27;20454;-81
2021/10/18 00:54:30;;;;;;;8.80;5.23;;;;;;;;;;5141992;27;20858;-82
2021/10/18 00:56:58;;;;;;;15.83;5.60;;;;;;;;;;5143062;27;20454;-83
2021/10/18 00:59:26;;;;;;;6.27;4.63;;;;;;;;;;5140662;27;20460;-81
2021/10/18 01:01:54;;;;;;;11.90;5.80;;;;;;;;;;5141322;27;20454;-82
2021/10/18 01:04:22;;;;;;;12.53;5.50;;;;;;;;;;5141857;27;20908;-82
2021/10/18 01:06:51;;;;;;;8.37;4.97;;;;;;;;;;5140195;27;20504;-83
2021/10/18 01:09:18;;;;;;;7.43;5.60;;;;;;;;;;5139614;27;20459;-81
2021/10/18 01:11:46;;;;;;;12.63;6.60;;;;;;;;;;5143168;27;20534;-82
2021/10/18 01:14:14;;;;;;;10.50;6.03;;;;;;;;;;5142150;27;20446;-83
2021/10/18 01:16:42;;;;;;;17.37;6.43;;;;;;;;;;5141547;27;20831;-83
2021/10/18 01:19:13;;;;;;;18.40;6.23;;;;;;;;;;5140755;27;20535;-81
2021/10/18 01:21:43;;;;;;;9.97;5.73;;;;;;;;;;5142361;27;20618;-83
2021/10/18 01:24:10;;;;;;;9.80;5.63;;;;;;;;;;5141568;27;20548;-80
2021/10/18 01:26:39;;;;;;;8.73;5.10;;;;;;;;;;5141478;27;20522;-81
2021/10/18 01:29:06;;;;;;;8.00;5.17;;;;;;;;;;5145136;27;20438;-82
2021/10/18 01:31:34;;;;;;;6.27;4.97;;;;;;;;;;5141991;27;20492;-82
2021/10/18 01:34:02;;;;;;;9.93;5.20;;;;;;;;;;5142100;27;20541;-82
2021/10/18 01:36:30;;;;;;;9.10;5.87;;;;;;;;;;5142478;27;20509;-82
2021/10/18 01:38:59;;;;;;;11.30;5.80;;;;;;;;;;5141092;27;20456;-82
2021/10/18 01:41:26;;;;;;;8.20;5.07;;;;;;;;;;5142652;27;20468;-82
2021/10/18 01:43:54;;;;;;;8.20;5.20;;;;;;;;;;5141694;27;20470;-82
2021/10/18 01:46:22;;;;;;;8.87;5.27;;;;;;;;;;5143230;27;20441;-81
2021/10/18 01:48:49;;;;;;;8.80;5.40;;;;;;;;;;5143032;27;20532;-82
2021/10/18 01:51:17;;;;;;;6.80;4.60;;;;;;;;;;5141910;27;20533;-82
2021/10/18 01:53:45;;;;;;;9.57;5.33;;;;;;;;;;5143262;27;20466;-83
2021/10/18 01:56:14;;;;;;;9.53;5.23;;;;;;;;;;5141027;27;20446;-81
2021/10/18 01:58:41;;;;;;;11.50;7.00;;;;;;;;;;5140158;27;20464;-82
2021/10/18 02:01:09;;;;;;;7.57;4.40;;;;;;;;;;5141043;27;20449;-81
2021/10/18 02:03:38;;;;;;;12.50;5.30;;;;;;;;;;5141583;27;20453;-82
2021/10/18 02:06:05;;;;;;;10.70;6.10;;;;;;;;;;5139832;27;20654;-83
2021/10/18 02:08:34;;;;;;;10.90;5.87;;;;;;;;;;5141465;28;20457;-82
2021/10/18 02:11:12;;;;;;;7.93;5.77;;;;;;;;;;5139498;28;20474;-82
2021/10/18 02:13:41;;;;;;;6.80;4.37;;;;;;;;;;5143262;28;20715;-82
2021/10/18 02:16:09;;;;;;;17.10;6.20;;;;;;;;;;5141022;28;20458;-81
2021/10/18 02:18:36;;;;;;;8.63;5.27;;;;;;;;;;5139038;28;20773;-82
2021/10/18 02:21:04;;;;;;;9.20;4.47;;;;;;;;;;5141229;28;20452;-82
2021/10/18 02:23:32;;;;;;;13.70;5.20;;;;;;;;;;5140656;28;20964;-82
2021/10/18 02:25:59;;;;;;;7.90;3.70;;;;;;;;;;5140890;28;20452;-82
2021/10/18 02:28:27;;;;;;;12.80;5.40;;;;;;;;;;5142844;27;20458;-82
2021/10/18 02:30:57;;;;;;;8.00;5.70;;;;;;;;;;5144474;27;20576;-82
2021/10/18 02:33:24;;;;;;;10.20;5.20;;;;;;;;;;5145721;27;20545;-83
2021/10/18 02:35:52;;;;;;;8.00;4.87;;;;;;;;;;5145925;27;20452;-82
2021/10/18 02:38:19;;;;;;;9.67;5.40;;;;;;;;;;5142780;27;20447;-83
2021/10/18 02:40:47;;;;;;;11.77;5.20;;;;;;;;;;5144291;27;20460;-82
2021/10/18 02:43:15;;;;;;;11.80;4.97;;;;;;;;;;5143505;27;20489;-82
2021/10/18 02:45:43;;;;;;;7.57;5.13;;;;;;;;;;5144376;27;20449;-83
2021/10/18 02:48:18;;;;;;;9.50;5.20;;;;;;;;;;5144610;27;20449;-82
2021/10/18 02:50:50;;;;;;;7.90;5.63;;;;;;;;;;5145060;27;20533;-83
2021/10/18 02:53:18;;;;;;;10.93;5.50;;;;;;;;;;5143747;27;20928;-82
2021/10/18 02:55:46;;;;;;;6.43;4.40;;;;;;;;;;5142712;27;20452;-82
2021/10/18 02:58:14;;;;;;;7.17;4.20;;;;;;;;;;5144283;27;21146;-83
2021/10/18 03:00:41;;;;;;;7.90;4.90;;;;;;;;;;5144677;27;20734;-82
2021/10/18 03:03:09;;;;;;;7.60;4.37;;;;;;;;;;5144302;27;20763;-83
2021/10/18 03:05:38;;;;;;;6.90;5.27;;;;;;;;;;5143777;27;20449;-82
2021/10/18 03:08:06;;;;;;;10.97;4.60;;;;;;;;;;5144434;27;20450;-83
2021/10/18 03:10:34;;;;;;;9.63;5.73;;;;;;;;;;5145033;27;20745;-82
2021/10/18 03:13:02;;;;;;;9.10;3.93;;;;;;;;;;5144618;27;20546;-82
2021/10/18 03:15:30;;;;;;;5.83;4.30;;;;;;;;;;5143930;27;20880;-82
2021/10/18 03:17:57;;;;;;;7.50;5.00;;;;;;;;;;5144167;27;20433;-82
2021/10/18 03:20:25;;;;;;;9.63;4.70;;;;;;;;;;5144252;27;20949;-82
2021/10/18 03:22:54;;;;;;;6.00;3.90;;;;;;;;;;5142374;27;20458;-82
2021/10/18 03:25:22;;;;;;;7.20;4.23;;;;;;;;;;5144023;27;20849;-83
2021/10/18 03:27:50;;;;;;;10.00;5.70;;;;;;;;;;5144464;27;20513;-82
2021/10/18 03:30:18;;;;;;;5.70;3.97;;;;;;;;;;5144429;27;20482;-81
2021/10/18 03:32:45;;;;;;;7.57;4.80;;;;;;;;;;5144515;27;20449;-82
2021/10/18 03:35:13;;;;;;;8.63;4.73;;;;;;;;;;5142781;27;20479;-82
2021/10/18 03:37:42;;;;;;;9.50;5.03;;;;;;;;;;5142943;27;20450;-82
2021/10/18 03:40:12;;;;;;;6.50;4.90;;;;;;;;;;5142016;27;20737;-82
2021/10/18 03:42:40;;;;;;;6.60;4.40;;;;;;;;;;5144444;27;20532;-83
2021/10/18 03:45:08;;;;;;;6.80;4.80;;;;;;;;;;5143572;27;20446;-83
2021/10/18 03:47:36;;;;;;;6.90;4.33;;;;;;;;;;5142317;27;20530;-82
2021/10/18 03:50:04;;;;;;;7.07;4.30;;;;;;;;;;5143717;27;20528;-82
2021/10/18 03:52:31;;;;;;;5.23;3.93;;;;;;;;;;5144385;27;20496;-82
2021/10/18 03:54:59;;;;;;;10.13;5.03;;;;;;;;;;5143203;27;20465;-82
2021/10/18 03:57:28;;;;;;;8.93;4.90;;;;;;;;;;5143153;27;20446;-83
2021/10/18 03:59:56;;;;;;;5.70;4.00;;;;;;;;;;5142870;27;20442;-82
2021/10/18 04:02:24;;;;;;;8.23;5.63;;;;;;;;;;5143762;27;20461;-80
2021/10/18 04:04:52;;;;;;;9.20;5.67;;;;;;;;;;5142933;27;20530;-81
2021/10/18 04:07:20;;;;;;;6.40;3.60;;;;;;;;;;5143839;27;20454;-82
2021/10/18 04:09:48;;;;;;;5.87;4.43;;;;;;;;;;5144092;27;20446;-83
2021/10/18 04:12:16;;;;;;;11.90;4.00;;;;;;;;;;5149312;27;20484;-82
2021/10/18 04:14:45;;;;;;;7.17;3.77;;;;;;;;;;5163914;27;20524;-80
2021/10/18 04:17:13;;;;;;;5.63;3.73;;;;;;;;;;5163661;27;20860;-82
2021/10/18 04:19:41;;;;;;;8.80;4.63;;;;;;;;;;5162897;27;20559;-82
2021/10/18 04:22:09;;;;;;;5.70;3.53;;;;;;;;;;5164713;27;20536;-82
2021/10/18 04:24:37;;;;;;;12.67;10.13;;;;;;;;;;5162640;27;20452;-82
2021/10/18 04:27:05;;;;;;;11.37;4.23;;;;;;;;;;5161544;27;20717;-81
2021/10/18 04:29:33;;;;;;;5.30;4.00;;;;;;;;;;5161162;27;20452;-82
2021/10/18 04:32:02;;;;;;;7.40;4.23;;;;;;;;;;5166610;27;20957;-81
2021/10/18 04:34:30;;;;;;;8.13;4.47;;;;;;;;;;5162812;27;20501;-82
2021/10/18 04:36:57;;;;;;;7.33;3.90;;;;;;;;;;5162514;27;20488;-82
2021/10/18 04:39:25;;;;;;;7.27;4.40;;;;;;;;;;5164207;27;20457;-83
2021/10/18 04:41:53;;;;;;;7.90;4.80;;;;;;;;;;5167117;27;20540;-83
2021/10/18 04:44:21;;;;;;;8.57;4.40;;;;;;;;;;5164645;27;20455;-83
2021/10/18 04:46:49;;;;;;;6.43;3.60;;;;;;;;;;5165954;27;20449;-82
2021/10/18 04:49:18;;;;;;;7.53;3.50;;;;;;;;;;5162971;27;20498;-82
2021/10/18 04:51:46;;;;;;;5.30;3.33;;;;;;;;;;5159074;27;20587;-82
2021/10/18 04:54:16;;;;;;;10.53;4.10;;;;;;;;;;5166769;27;20457;-83
2021/10/18 04:56:44;;;;;;;11.03;3.70;;;;;;;;;;5163286;27;20449;-82
2021/10/18 04:59:11;;;;;;;12.13;4.30;;;;;;;;;;5166265;27;20539;-82
2021/10/18 05:01:39;;;;;;;14.03;4.03;;;;;;;;;;5163428;27;20531;-82
2021/10/18 05:04:07;;;;;;;7.33;4.20;;;;;;;;;;5162807;27;20789;-82
2021/10/18 05:06:36;;;;;;;5.70;3.37;;;;;;;;;;5163006;27;20484;-83
2021/10/18 05:09:03;;;;;;;6.30;3.50;;;;;;;;;;5162261;27;20543;-82
2021/10/18 05:11:31;;;;;;;6.20;3.70;;;;;;;;;;5162712;27;20473;-83
2021/10/18 05:13:59;;;;;;;8.47;4.57;;;;;;;;;;5163695;27;20495;-82
2021/10/18 05:16:27;;;;;;;6.03;4.53;;;;;;;;;;5161478;27;20453;-82
2021/10/18 05:18:54;;;;;;;6.97;4.10;;;;;;;;;;5163985;27;20535;-83
2021/10/18 05:21:22;;;;;;;6.07;4.60;;;;;;;;;;5163182;27;20469;-82
2021/10/18 05:23:51;;;;;;;7.17;3.80;;;;;;;;;;5161598;27;20471;-83
2021/10/18 05:26:25;;;;;;;8.93;3.77;;;;;;;;;;5162543;27;20485;-83
2021/10/18 05:28:53;;;;;;;7.53;4.27;;;;;;;;;;5161363;27;20445;-82
2021/10/18 05:31:21;;;;;;;5.50;3.73;;;;;;;;;;5163395;27;20516;-82
2021/10/18 05:33:48;;;;;;;10.03;4.57;;;;;;;;;;5163789;27;20484;-82
2021/10/18 05:36:16;;;;;;;7.33;4.17;;;;;;;;;;5162366;27;20465;-83
2021/10/18 05:38:44;;;;;;;8.80;4.30;;;;;;;;;;5163641;27;20445;-82
2021/10/18 05:41:13;;;;;;;8.10;4.40;;;;;;;;;;5162185;27;20821;-82
2021/10/18 05:43:41;;;;;;;8.83;4.10;;;;;;;;;;5163928;27;20521;-81
2021/10/18 05:46:08;;;;;;;8.27;3.90;;;;;;;;;;5145694;27;20450;-82
2021/10/18 05:48:43;;;;;;;7.00;3.90;;;;;;;;;;5141261;27;20457;-82
2021/10/18 05:51:10;;;;;;;5.67;4.20;;;;;;;;;;5141810;27;20477;-82
2021/10/18 05:53:38;;;;;;;10.90;5.00;;;;;;;;;;5142145;27;20517;-83
2021/10/18 05:56:06;;;;;;;5.47;3.70;;;;;;;;;;5147458;27;20449;-83
2021/10/18 05:58:35;;;;;;;5.00;4.00;;;;;;;;;;5144491;27;20471;-81
2021/10/18 06:01:06;;;;;;;7.63;3.20;;;;;;;;;;5139875;27;20470;-81
2021/10/18 06:03:34;;;;;;;6.10;4.30;;;;;;;;;;5143357;27;20560;-82
2021/10/18 06:06:02;;;;;;;9.57;4.30;;;;;;;;;;5158604;27;20466;-82
2021/10/18 06:08:31;;;;;;;5.40;3.33;;;;;;;;;;5163546;27;20440;-81
2021/10/18 06:10:58;;;;;;;7.30;3.57;;;;;;;;;;5143682;27;20813;-83
2021/10/18 06:13:26;;;;;;;12.73;4.93;;;;;;;;;;5144486;27;20536;-81
2021/10/18 06:15:57;;;;;;;8.07;4.17;;;;;;;;;;5141053;28;20574;-81
2021/10/18 06:18:25;;;;;;;8.10;5.30;;;;;;;;;;5142925;27;20442;-82
2021/10/18 06:20:54;;;;;;;6.97;4.80;;;;;;;;;;5142542;28;20445;-79
2021/10/18 06:23:23;;;;;;;5.20;3.97;;;;;;;;;;5158312;27;20579;-83
2021/10/18 06:25:50;;;;;;;9.10;3.63;;;;;;;;;;5162333;27;20449;-82
2021/10/18 06:28:18;;;;;;;6.77;4.90;;;;;;;;;;5161258;27;20472;-83
2021/10/18 06:30:46;;;;;;;7.13;3.90;;;;;;;;;;5160651;27;20452;-82
2021/10/18 06:33:19;;;;;;;9.57;4.50;;;;;;;;;;5161187;27;20730;-80
2021/10/18 06:35:47;;;;;;;7.60;4.70;;;;;;;;;;5162115;27;20457;-81
2021/10/18 06:38:16;;;;;;;9.03;4.30;;;;;;;;;;5153788;27;20441;-83
2021/10/18 06:40:44;;;;;;;6.47;4.00;;;;;;;;;;5139650;28;20873;-82
2021/10/18 06:43:12;;;;;;;6.53;4.30;;;;;;;;;;5139818;28;20448;-83
2021/10/18 06:45:39;;;;;;;7.20;4.00;;;;;;;;;;5139702;28;20453;-81
2021/10/18 06:48:08;;;;;;;6.13;4.27;;;;;;;;;;5139217;28;20485;-81
2021/10/18 06:50:37;;;;;;;4.47;3.30;;;;;;;;;;5140024;28;20588;-82
2021/10/18 06:53:06;;;;;;;5.10;3.63;;;;;;;;;;5137869;28;20568;-81
2021/10/18 06:55:37;;;;;;;10.20;4.80;;;;;;;;;;5138999;28;20874;-82
2021/10/18 06:58:06;;;;;;;6.80;3.63;;;;;;;;;;5137857;28;20529;-82
2021/10/18 07:00:34;;;;;;;20.13;4.93;;;;;;;;;;5143957;27;20544;-80
2021/10/18 07:03:01;;;;;;;8.60;4.47;;;;;;;;;;5139372;28;20638;-81
2021/10/18 07:05:29;;;;;;;6.00;3.67;;;;;;;;;;5140105;28;20438;-80
2021/10/18 07:07:58;;;;;;;7.03;4.23;;;;;;;;;;5140379;28;20449;-81
2021/10/18 07:10:28;;;;;;;9.77;3.70;;;;;;;;;;5139292;28;20516;-83
2021/10/18 07:12:58;;;;;;;10.43;6.00;;;;;;;;;;5138365;27;20704;-82
2021/10/18 07:15:31;;;;;;;6.17;3.80;;;;;;;;;;5151334;27;20503;-79
2021/10/18 07:17:59;;;;;;;5.93;4.20;;;;;;;;;;5165208;27;20449;-83
2021/10/18 07:20:28;;;;;;;5.50;4.00;;;;;;;;;;5145918;27;20504;-81
2021/10/18 07:22:58;;;;;;;4.97;3.50;;;;;;;;;;5136872;27;20581;-82
2021/10/18 07:25:32;;;;;;;8.20;3.63;;;;;;;;;;5138311;27;20756;-81
2021/10/18 07:28:04;;;;;;;6.47;4.47;;;;;;;;;;5147870;27;20476;-82
2021/10/18 07:30:34;;;;;;;7.03;4.13;;;;;;;;;;5137095;27;20472;-84
2021/10/18 07:33:02;;;;;;;4.43;3.57;;;;;;;;;;5140937;27;20505;-80
2021/10/18 07:35:36;;;;;;;8.17;4.17;;;;;;;;;;5149750;27;20450;-80
2021/10/18 07:38:05;;;;;;;11.83;7.30;;;;;;;;;;5150673;27;20445;-80
2021/10/18 07:40:34;;;;;;;6.17;4.30;;;;;;;;;;5148630;27;20703;-83
2021/10/18 07:43:02;;;;;;;5.47;3.83;;;;;;;;;;5128905;27;20547;-80
2021/10/18 07:45:30;;;;;;;7.47;4.53;;;;;;;;;;5139456;27;20521;-81
2021/10/18 07:47:58;;;;;;;4.13;3.47;;;;;;;;;;5144806;27;20478;-82
2021/10/18 07:50:27;;;;;;;7.00;5.10;;;;;;;;;;5142161;27;20541;-80
2021/10/18 07:52:55;;;;;;;7.13;5.63;;;;;;;;;;5153230;27;20477;-80
2021/10/18 07:55:28;;;;;;;11.63;4.77;;;;;;;;;;5162470;27;20441;-79
2021/10/18 07:57:57;;;;;;;11.10;5.63;;;;;;;;;;5154613;27;20553;-82
2021/10/18 08:00:25;;;;;;;10.33;6.40;;;;;;;;;;5143117;27;20529;-81
2021/10/18 08:02:53;;;;;;;9.60;5.40;;;;;;;;;;5142232;27;20612;-83
2021/10/18 08:05:23;;;;;;;6.60;4.30;;;;;;;;;;5154469;27;20441;-81
2021/10/18 08:07:52;;;;;;;8.00;5.50;;;;;;;;;;5152946;27;20470;-81
2021/10/18 08:10:24;;;;;;;8.80;4.53;;;;;;;;;;5161244;27;20441;-81
2021/10/18 08:12:52;;;;;;;9.17;5.00;;;;;;;;;;5162759;27;20818;-81
2021/10/18 08:15:21;;;;;;;8.17;5.20;;;;;;;;;;5162630;27;20513;-81
2021/10/18 08:17:50;;;;;;;8.37;6.00;;;;;;;;;;5161522;27;20540;-80
2021/10/18 08:20:18;;;;;;;6.40;4.87;;;;;;;;;;5163481;27;20445;-82
2021/10/18 08:22:47;;;;;;;10.03;6.30;;;;;;;;;;5161149;27;20823;-81
2021/10/18 08:25:16;;;;;;;7.80;5.87;;;;;;;;;;5159249;27;20520;-80
2021/10/18 08:27:44;;;;;;;5.73;3.80;;;;;;;;;;5162358;27;20460;-82
2021/10/18 08:30:12;;;;;;;7.33;5.10;;;;;;;;;;5162679;27;20703;-80
2021/10/18 08:32:42;;;;;;;8.67;5.57;;;;;;;;;;5131958;27;20576;-81
2021/10/18 08:35:11;;;;;;;5.87;4.50;;;;;;;;;;5140455;27;20514;-80
2021/10/18 08:40:26;;;;;;;8.33;6.10;;;;;;;;;;5136459;27;20426;-82
2021/10/18 08:42:58;;;;;;;8.33;5.30;;;;;;;;;;5136986;27;20520;-82
2021/10/18 08:45:48;;;;;;;9.67;4.43;;;;;;;;;;5145600;27;20441;-79
2021/10/18 08:48:20;;;;;;;6.80;4.20;;;;;;;;;;5141299;27;20798;-83
2021/10/18 08:50:49;;;;;;;7.70;4.80;;;;;;;;;;5136799;27;20539;-81
2021/10/18 08:53:17;;;;;;;6.23;3.90;;;;;;;;;;5140522;27;20576;-83
2021/10/18 08:55:47;;;;;;;9.77;4.70;;;;;;;;;;5145541;27;20446;-84
2021/10/18 08:58:16;;;;;;;7.40;4.10;;;;;;;;;;5163343;27;20472;-82
2021/10/18 09:00:47;;;;;;;5.60;4.03;;;;;;;;;;5155551;27;20913;-80
2021/10/18 09:03:22;;;;;;;5.77;3.57;;;;;;;;;;5143274;27;20450;-80
2021/10/18 09:05:50;;;;;;;5.47;4.20;;;;;;;;;;5141963;27;20490;-80
2021/10/18 09:08:36;;;;;;;8.67;3.70;;;;;;;;;;5165946;27;20455;-81
2021/10/18 09:11:04;;;;;;;5.60;3.80;;;;;;;;;;5163343;27;20505;-81
2021/10/18 09:13:32;;;;;;;6.20;3.90;;;;;;;;;;5161408;27;20485;-80
2021/10/18 09:16:03;;;;;;;6.73;2.97;;;;;;;;;;5146686;27;20465;-80
2021/10/18 09:19:09;;;;;;;4.70;3.70;;;;;;;;;;5139005;27;20462;-81
2021/10/18 09:21:45;;;;;;;6.90;4.93;;;;;;;;;;5133071;27;20453;-81
2021/10/18 09:24:18;;;;;;;10.23;6.17;;;;;;;;;;5140712;27;20853;-80
2021/10/18 09:26:46;;;;;;;10.70;5.80;;;;;;;;;;5150275;27;20450;-79
2021/10/18 09:29:16;;;;;;;8.00;5.00;;;;;;;;;;5141019;27;20438;-80
2021/10/18 09:31:46;;;;;;;6.23;4.70;;;;;;;;;;5135391;27;20763;-80
2021/10/18 09:34:23;;;;;;;5.97;4.20;;;;;;;;;;5139672;27;20480;-81
2021/10/18 09:36:52;;;;;;;6.20;3.80;;;;;;;;;;5152192;27;20473;-83
2021/10/18 09:39:28;;;;;;;7.60;4.37;;;;;;;;;;5146933;27;20459;-81
2021/10/18 09:42:00;;;;;;;9.77;4.60;;;;;;;;;;5130759;27;20795;-81
2021/10/18 09:44:57;;;;;;;6.67;5.37;;;;;;;;;;5138220;27;20445;-80
2021/10/18 10:52:47;;;;;;;4.03;2.63;;;;;;;;;;5135219;27;20485;-83
2021/10/18 10:55:20;;;;;;;4.80;2.70;;;;;;;;;;5143505;27;20471;-81
2021/10/18 10:57:51;;;;;;;7.00;2.10;;;;;;;;;;5134915;27;20718;-82
2021/10/18 11:00:31;;;;;;;5.53;2.47;;;;;;;;;;5145197;27;20459;-82
2021/10/18 11:03:14;;;;;;;4.60;3.40;;;;;;;;;;5144959;27;20539;-81
2021/10/18 11:05:56;;;;;;;2.00;1.53;;;;;;;;;;5143580;27;20433;-80
2021/10/18 11:08:35;;;;;;;3.60;2.03;;;;;;;;;;5166751;27;20555;-79
2021/10/18 11:11:12;;;;;;;4.83;2.57;;;;;;;;;;5167968;27;20461;-82
2021/10/18 11:13:46;;;;;;;4.30;2.60;;;;;;;;;;5156721;27;20477;-82
2021/10/18 11:16:15;;;;;;;4.63;2.43;;;;;;;;;;5147775;27;20585;-82
2021/10/18 11:18:42;;;;;;;3.07;2.37;;;;;;;;;;5164882;27;20486;-85
2021/10/18 11:21:21;;;;;;;5.67;1.97;;;;;;;;;;5144416;27;20514;-86
2021/10/18 11:23:58;;;;;;;2.87;1.83;;;;;;;;;;5161567;27;20540;-84
2021/10/18 11:26:26;;;;;;;2.97;2.03;;;;;;;;;;5155658;27;20514;-86
2021/10/18 11:28:57;;;;;;;2.10;1.80;;;;;;;;;;5146392;27;20525;-84
2021/10/18 11:31:28;;;;;;;3.83;1.20;;;;;;;;;;5145887;27;20449;-84
2021/10/18 11:34:12;;;;;;;3.00;1.93;;;;;;;;;;5153129;27;20473;-82
2021/10/18 11:36:40;;;;;;;2.57;1.50;;;;;;;;;;5141445;27;20449;-83
2021/10/18 11:39:21;;;;;;;3.50;2.10;;;;;;;;;;5162452;27;20441;-84
2021/10/18 11:42:05;;;;;;;4.60;2.40;;;;;;;;;;5158618;27;20487;-84
2021/10/18 11:44:45;;;;;;;4.10;2.93;;;;;;;;;;5147878;27;20506;-86
2021/10/18 11:47:29;;;;;;;3.43;2.47;;;;;;;;;;5154204;27;20884;-80
2021/10/18 11:50:07;;;;;;;4.57;2.00;;;;;;;;;;5145155;27;20514;-81
2021/10/18 11:52:35;;;;;;;3.73;2.50;;;;;;;;;;5144353;27;20588;-81
2021/10/18 11:55:07;;;;;;;3.47;1.93;;;;;;;;;;5143603;27;20502;-82
2021/10/18 11:57:39;;;;;;;3.53;1.73;;;;;;;;;;5141941;27;20454;-83
2021/10/18 12:00:10;;;;;;;3.17;1.70;;;;;;;;;;5140927;27;20856;-81
2021/10/18 12:02:41;;;;;;;2.97;2.00;;;;;;;;;;5142031;27;20516;-82
2021/10/18 12:05:10;;;;;;;5.53;3.40;;;;;;;;;;5142359;27;20808;-81
2021/10/18 12:07:45;;;;;;;6.97;3.63;;;;;;;;;;5135771;27;20522;-82
2021/10/18 12:10:14;;;;;;;19.97;10.03;;;;;;;;;;5140329;27;20536;-81
2021/10/18 12:12:42;;;;;;;5.30;2.47;;;;;;;;;;5141428;27;20553;-81
2021/10/18 12:15:16;;;;;;;4.70;2.13;;;;;;;;;;5148738;27;20540;-82
2021/10/18 12:17:44;;;;;;;4.87;1.77;;;;;;;;;;5141208;27;20468;-84
2021/10/18 12:20:13;;;;;;;3.00;2.27;;;;;;;;;;5138985;27;20459;-82
2021/10/18 12:22:55;;;;;;;4.20;2.57;;;;;;;;;;5132089;27;20554;-84
2021/10/18 12:25:24;;;;;;;3.80;1.70;;;;;;;;;;5142057;27;20477;-85
2021/10/18 12:27:57;;;;;;;2.50;1.63;;;;;;;;;;5140136;27;20454;-82
2021/10/18 12:30:39;;;;;;;3.40;1.97;;;;;;;;;;5135554;27;20456;-86
2021/10/18 12:33:12;;;;;;;4.57;2.10;;;;;;;;;;5127806;27;20495;-81
2021/10/18 12:35:39;;;;;;;2.73;1.80;;;;;;;;;;5152651;27;20445;-82
2021/10/18 12:38:11;;;;;;;3.00;1.80;;;;;;;;;;5149963;27;20457;-83
2021/10/18 12:40:39;;;;;;;5.10;1.77;;;;;;;;;;5143216;27;20480;-82
2021/10/18 12:43:07;;;;;;;2.97;1.87;;;;;;;;;;5139106;27;20510;-85
2021/10/18 12:45:35;;;;;;;3.33;2.03;;;;;;;;;;5150614;27;20443;-85
2021/10/18 12:48:05;;;;;;;2.90;1.80;;;;;;;;;;5148894;27;20583;-85
2021/10/18 12:50:37;;;;;;;6.73;1.83;;;;;;;;;;5144744;27;20450;-86
2021/10/18 12:53:10;;;;;;;2.50;1.60;;;;;;;;;;5141638;27;20492;-81
2021/10/18 12:55:42;;;;;;;3.50;1.97;;;;;;;;;;5156264;27;20700;-83
2021/10/18 12:58:26;;;;;;;3.73;1.73;;;;;;;;;;5153701;27;20446;-84
2021/10/18 13:00:54;;;;;;;5.40;2.20;;;;;;;;;;5147743;27;20445;-82
2021/10/18 13:03:24;;;;;;;4.20;2.47;;;;;;;;;;5147432;27;20938;-82
2021/10/18 13:06:07;;;;;;;4.03;2.23;;;;;;;;;;5139762;27;20489;-82
2021/10/18 13:08:35;;;;;;;4.20;2.70;;;;;;;;;;5133594;27;20447;-84
2021/10/18 13:11:02;;;;;;;4.00;1.90;;;;;;;;;;5137349;27;20434;-84
2021/10/18 13:13:31;;;;;;;3.63;1.97;;;;;;;;;;5137467;27;20479;-84
2021/10/18 13:15:58;;;;;;;2.33;1.70;;;;;;;;;;5136438;27;21141;-82
2021/10/18 13:18:28;;;;;;;4.00;2.13;;;;;;;;;;5124983;27;20463;-82
2021/10/18 13:20:59;;;;;;;4.47;2.90;;;;;;;;;;5131438;27;20465;-84
2021/10/18 13:23:28;;;;;;;7.23;2.50;;;;;;;;;;5140225;27;20466;-84
2021/10/18 13:25:58;;;;;;;3.77;2.97;;;;;;;;;;5138474;27;20795;-82
2021/10/18 13:28:25;;;;;;;3.40;2.23;;;;;;;;;;5134269;27;20536;-84
2021/10/18 13:30:55;;;;;;;4.07;2.17;;;;;;;;;;5134983;27;20461;-82
2021/10/18 13:33:34;;;;;;;5.80;2.80;;;;;;;;;;5137909;27;20509;-83
2021/10/18 13:36:03;;;;;;;6.70;3.53;;;;;;;;;;5134819;27;20787;-82
2021/10/18 13:38:31;;;;;;;5.37;2.90;;;;;;;;;;5140386;27;20469;-84
2021/10/18 13:41:02;;;;;;;10.30;2.77;;;;;;;;;;5135724;27;20954;-82
2021/10/18 13:43:30;;;;;;;4.40;2.80;;;;;;;;;;5141386;27;20454;-83
2021/10/18 13:45:58;;;;;;;7.70;2.97;;;;;;;;;;5128660;27;20455;-85
2021/10/18 13:48:45;;;;;;;5.83;2.67;;;;;;;;;;5140924;27;20487;-82
2021/10/18 13:51:14;;;;;;;4.07;2.97;;;;;;;;;;5138133;27;20514;-80
2021/10/18 13:53:42;;;;;;;6.00;2.40;;;;;;;;;;5133877;27;20500;-82
2021/10/18 13:56:14;;;;;;;6.63;2.10;;;;;;;;;;5131191;27;20458;-84
2021/10/18 13:58:45;;;;;;;5.60;2.93;;;;;;;;;;5130816;27;20528;-83
2021/10/18 14:01:14;;;;;;;4.40;2.30;;;;;;;;;;5131905;27;20444;-82
2021/10/18 14:03:50;;;;;;;5.77;2.60;;;;;;;;;;5129872;27;20447;-84
2021/10/18 14:06:22;;;;;;;9.60;4.53;;;;;;;;;;5126923;27;20526;-82
2021/10/18 14:08:51;;;;;;;5.20;3.80;;;;;;;;;;5135228;27;20450;-82
2021/10/18 14:11:18;;;;;;;4.10;3.00;;;;;;;;;;5127796;27;20451;-83
2021/10/18 14:13:46;;;;;;;3.77;1.90;;;;;;;;;;5130645;27;20471;-84
2021/10/18 14:16:15;;;;;;;5.83;4.53;;;;;;;;;;5129976;28;20499;-83
2021/10/18 14:18:45;;;;;;;6.40;3.37;;;;;;;;;;5135769;28;20866;-83
2021/10/18 14:24:30;;;;;;;5.60;3.13;;;;;;;;;;5137254;27;20441;-81
2021/10/18 14:27:00;;;;;;;7.57;3.70;;;;;;;;;;5139052;27;20632;-85
2021/10/18 14:29:28;;;;;;;9.20;6.57;;;;;;;;;;5140829;27;20457;-82
2021/10/18 14:31:57;;;;;;;6.23;3.30;;;;;;;;;;5131920;27;20473;-84
2021/10/18 14:34:27;;;;;;;3.80;2.70;;;;;;;;;;5139129;27;20473;-83
2021/10/18 14:36:55;;;;;;;4.00;2.73;;;;;;;;;;5142461;27;20458;-82
2021/10/18 14:39:22;;;;;;;4.10;2.50;;;;;;;;;;5138178;27;20458;-81
2021/10/18 14:41:52;;;;;;;5.53;3.37;;;;;;;;;;5140653;27;20837;-83
2021/10/18 14:44:20;;;;;;;3.43;2.67;;;;;;;;;;5141007;27;20519;-81
2021/10/18 14:46:48;;;;;;;5.80;3.60;;;;;;;;;;5146304;27;20460;-80
2021/10/18 14:49:16;;;;;;;7.17;4.70;;;;;;;;;;5135843;27;20438;-82
2021/10/18 14:51:46;;;;;;;5.57;3.93;;;;;;;;;;5141661;27;20499;-81
2021/10/18 14:54:14;;;;;;;7.10;5.00;;;;;;;;;;5136710;27;20657;-83
2021/10/18 14:56:42;;;;;;;5.43;3.07;;;;;;;;;;5144525;27;20470;-81
2021/10/18 14:59:10;;;;;;;5.33;2.97;;;;;;;;;;5149619;27;20450;-82
2021/10/18 15:01:43;;;;;;;5.50;3.10;;;;;;;;;;5149390;27;20478;-83
2021/10/18 15:04:20;;;;;;;6.17;2.57;;;;;;;;;;5144548;27;20438;-82
2021/10/18 15:06:49;;;;;;;3.93;2.70;;;;;;;;;;5168787;27;20543;-84
2021/10/18 15:09:17;;;;;;;2.93;2.17;;;;;;;;;;5147497;27;20552;-82
2021/10/18 15:11:45;;;;;;;16.40;9.40;;;;;;;;;;5146735;27;20458;-85
2021/10/18 15:14:13;;;;;;;11.83;7.00;;;;;;;;;;5152226;27;20466;-83
2021/10/18 15:16:41;;;;;;;8.83;4.53;;;;;;;;;;5147634;27;20456;-85
2021/10/18 15:19:10;;;;;;;7.73;4.07;;;;;;;;;;5152326;27;20787;-84
2021/10/18 15:21:41;;;;;;;4.07;2.20;;;;;;;;;;5133191;27;20480;-84
2021/10/18 15:24:12;;;;;;;7.20;2.30;;;;;;;;;;5148757;27;20694;-83
2021/10/18 15:26:41;;;;;;;6.33;2.57;;;;;;;;;;5143878;27;20531;-84
2021/10/18 15:29:08;;;;;;;4.37;2.57;;;;;;;;;;5145023;27;20510;-83
2021/10/18 15:31:36;;;;;;;5.83;2.77;;;;;;;;;;5144336;27;20465;-85
2021/10/18 15:34:05;;;;;;;3.30;2.37;;;;;;;;;;5141294;27;20473;-85
2021/10/18 15:36:34;;;;;;;5.70;2.40;;;;;;;;;;5129634;27;20473;-85
2021/10/18 15:39:03;;;;;;;5.60;2.60;;;;;;;;;;5142888;27;20446;-86
2021/10/18 15:41:32;;;;;;;6.80;3.50;;;;;;;;;;5143527;27;20494;-83
2021/10/18 15:44:00;;;;;;;7.50;4.33;;;;;;;;;;5143187;27;20525;-83
2021/10/18 15:46:28;;;;;;;9.73;3.33;;;;;;;;;;5143468;27;20470;-84
2021/10/18 15:48:56;;;;;;;5.93;2.67;;;;;;;;;;5139604;27;20509;-84
2021/10/18 15:51:23;;;;;;;7.70;2.73;;;;;;;;;;5142531;27;20476;-83
2021/10/18 15:53:55;;;;;;;10.10;4.00;;;;;;;;;;5141020;27;20569;-83
2021/10/18 15:56:23;;;;;;;7.90;2.90;;;;;;;;;;5140363;27;20453;-84
2021/10/18 15:58:53;;;;;;;6.97;4.87;;;;;;;;;;5142940;27;20438;-83
2021/10/18 16:01:23;;;;;;;8.17;5.67;;;;;;;;;;5140381;27;20549;-82
2021/10/18 16:03:51;;;;;;;4.00;3.00;;;;;;;;;;5141846;27;21096;-82
2021/10/18 16:06:19;;;;;;;4.20;3.17;;;;;;;;;;5141165;27;20462;-84